Time;durP1;ratioP1;P1;durP2;ratioP2;P2;SDS_P1;SDS_P2;PMS_P1;PMS_P2;Temp;Humidity;BMP_temperature;BMP_pressure;BME280_temperature;BME280_humidity;BME280_pressure;Samples;Min_cycle;Max_cycle;Signal;HPM_P1;HPM_P2
2022/08/05 00:01:26;;;;;;;6.55;4.05;;;;;;;23.55;68.78;100399.44;4966075;28;21001;-76
2022/08/05 00:03:54;;;;;;;4.25;3.85;;;;;;;23.49;69.21;100403.47;4954268;28;20089;-77
2022/08/05 00:06:23;;;;;;;5.13;4.18;;;;;;;23.45;69.91;100412.75;4972710;28;20451;-76
2022/08/05 00:08:59;;;;;;;6.70;4.53;;;;;;;23.38;69.80;100408.84;4970697;28;20158;-76
2022/08/05 00:11:27;;;;;;;5.10;3.97;;;;;;;23.30;70.03;100408.59;4955325;28;20702;-76
2022/08/05 00:14:02;;;;;;;9.02;4.25;;;;;;;23.22;70.99;100397.53;4956199;28;20043;-76
2022/08/05 00:16:45;;;;;;;5.25;3.83;;;;;;;23.14;71.01;100397.28;4973123;28;20031;-77
2022/08/05 00:19:20;;;;;;;5.70;4.28;;;;;;;23.11;71.58;100397.50;4951698;28;20054;-77
2022/08/05 00:21:49;;;;;;;5.25;4.10;;;;;;;23.13;71.81;100399.09;4956500;28;20074;-77
2022/08/05 00:24:15;;;;;;;4.72;4.07;;;;;;;23.04;72.30;100397.13;4954292;28;20042;-76
2022/08/05 00:26:51;;;;;;;5.30;4.25;;;;;;;22.93;72.75;100397.91;4952412;28;20038;-78
2022/08/05 00:29:21;;;;;;;6.25;4.80;;;;;;;22.88;73.53;100385.78;4966566;28;20105;-78
2022/08/05 00:31:52;;;;;;;4.45;4.05;;;;;;;22.79;73.93;100386.47;4971140;28;20047;-78
2022/08/05 00:34:40;;;;;;;4.53;4.13;;;;;;;22.67;74.24;100388.22;4976387;28;20047;-78
2022/08/05 00:37:27;;;;;;;6.50;4.43;;;;;;;22.60;74.98;100386.97;4982888;28;20499;-78
2022/08/05 00:40:13;;;;;;;6.10;4.65;;;;;;;22.63;75.10;100392.16;4971549;28;20089;-78
2022/08/05 00:42:52;;;;;;;5.70;4.18;;;;;;;22.57;75.24;100388.06;4948735;28;20034;-78
2022/08/05 00:45:19;;;;;;;6.85;4.28;;;;;;;22.53;76.01;100386.56;4964591;28;20046;-78
2022/08/05 00:48:08;;;;;;;5.43;4.50;;;;;;;22.45;76.32;100389.84;4955888;28;20588;-78
2022/08/05 00:50:36;;;;;;;5.80;4.85;;;;;;;22.37;76.80;100394.09;4954289;28;20042;-78
2022/08/05 00:53:03;;;;;;;6.00;4.50;;;;;;;22.40;76.95;100392.00;4961594;28;20599;-78
2022/08/05 00:55:50;;;;;;;4.65;4.15;;;;;;;22.36;76.99;100403.97;4953041;28;20042;-78
2022/08/05 00:58:17;;;;;;;5.70;4.60;;;;;;;22.35;77.27;100409.47;4981203;28;20073;-78
2022/08/05 01:00:46;;;;;;;7.68;4.80;;;;;;;22.17;77.84;100428.66;4969508;28;20034;-78
2022/08/05 01:03:13;;;;;;;7.72;5.28;;;;;;;22.10;78.28;100458.81;4958194;28;20038;-78
2022/08/05 01:05:49;;;;;;;9.77;4.63;;;;;;;22.22;77.43;100492.09;4961570;28;20046;-78
2022/08/05 01:08:17;;;;;;;5.03;4.53;;;;;;;22.32;77.61;100476.97;4964615;28;20038;-78
2022/08/05 01:11:23;;;;;;;6.07;4.22;;;;;;;22.45;76.62;100464.38;4957332;28;20050;-79
2022/08/05 01:14:08;;;;;;;5.63;4.72;;;;;;;22.57;75.77;100479.63;4986300;28;20049;-78
2022/08/05 01:16:44;;;;;;;5.22;4.70;;;;;;;22.54;75.57;100487.94;4987493;28;20539;-79
2022/08/05 01:19:23;;;;;;;5.15;4.47;;;;;;;22.58;75.94;100470.56;4971431;28;20042;-78
2022/08/05 01:22:20;;;;;;;6.90;4.70;;;;;;;22.65;75.22;100474.53;4965935;28;20042;-78
2022/08/05 01:25:23;;;;;;;5.20;4.70;;;;;;;22.55;75.60;100486.94;4973985;28;20690;-78
2022/08/05 01:28:36;;;;;;;7.25;4.43;;;;;;;22.51;77.20;100474.66;4958807;28;20046;-77
2022/08/05 01:31:17;;;;;;;4.78;4.18;;;;;;;22.54;77.41;100468.22;4984648;28;20035;-78
2022/08/05 01:33:50;;;;;;;4.50;4.10;;;;;;;22.48;77.56;100465.00;4969890;28;20046;-78
2022/08/05 01:36:19;;;;;;;17.77;5.15;;;;;;;22.40;77.54;100451.22;4976968;28;20385;-78
2022/08/05 01:38:54;;;;;;;5.10;4.70;;;;;;;22.39;78.06;100443.28;4967982;28;20043;-78
2022/08/05 01:41:22;;;;;;;6.57;4.60;;;;;;;22.37;78.80;100442.53;4966934;28;20066;-78
2022/08/05 01:43:52;;;;;;;5.20;4.72;;;;;;;22.30;78.68;100449.34;4959555;28;20409;-78
2022/08/05 01:46:20;;;;;;;5.20;4.72;;;;;;;22.22;79.24;100443.66;4988128;28;20039;-78
2022/08/05 01:49:09;;;;;;;5.28;4.65;;;;;;;22.15;80.00;100440.53;4963995;28;20050;-78
2022/08/05 01:51:52;;;;;;;6.13;4.53;;;;;;;22.05;80.14;100452.91;4975772;28;20042;-78
2022/08/05 01:54:19;;;;;;;5.93;4.53;;;;;;;21.92;81.44;100440.31;4948841;28;20049;-78
2022/08/05 01:56:51;;;;;;;5.63;4.80;;;;;;;21.95;81.34;100438.38;4975053;28;20031;-78
2022/08/05 01:59:39;;;;;;;7.20;5.32;;;;;;;21.92;81.93;100450.19;4959813;28;20487;-78
2022/08/05 02:02:12;;;;;;;5.93;4.47;;;;;;;21.97;83.47;100441.81;4970211;28;20077;-77
2022/08/05 02:04:41;;;;;;;4.88;4.47;;;;;;;21.90;82.96;100444.94;4959541;28;20050;-78
2022/08/05 02:07:12;;;;;;;5.15;4.65;;;;;;;21.85;84.36;100447.06;4954225;28;20047;-78
2022/08/05 02:09:49;;;;;;;7.32;5.00;;;;;;;21.79;83.43;100454.75;4945017;28;20085;-78
2022/08/05 02:12:46;;;;;;;6.35;4.90;;;;;;;21.71;84.44;100447.22;4997233;28;20043;-78
2022/08/05 02:15:22;;;;;;;5.85;5.10;;;;;;;21.71;84.85;100443.66;4954017;28;20055;-78
2022/08/05 02:18:07;;;;;;;6.32;4.65;;;;;;;21.59;85.59;100438.16;4962731;28;20502;-78
2022/08/05 02:21:05;;;;;;;6.50;5.03;;;;;;;21.56;86.59;100429.47;4955897;28;20045;-78
2022/08/05 02:23:43;;;;;;;5.85;5.00;;;;;;;21.54;86.70;100421.50;4974508;28;20066;-78
2022/08/05 02:26:12;;;;;;;5.40;4.90;;;;;;;21.54;86.72;100417.97;4969041;28;20126;-78
2022/08/05 02:28:43;;;;;;;5.53;4.72;;;;;;;21.50;88.17;100422.66;4946784;28;20506;-78
2022/08/05 02:31:15;;;;;;;6.03;5.53;;;;;;;21.45;88.50;100422.16;4951931;28;20050;-78
2022/08/05 02:33:51;;;;;;;6.65;5.97;;;;;;;21.44;88.81;100411.47;4968203;28;20070;-78
2022/08/05 02:36:24;;;;;;;5.47;4.97;;;;;;;21.38;89.72;100418.16;4984796;28;20133;-78
2022/08/05 02:38:57;;;;;;;5.60;4.65;;;;;;;21.32;90.39;100423.94;4973262;28;20031;-78
2022/08/05 02:41:25;;;;;;;5.78;5.28;;;;;;;21.26;91.03;100430.56;4982934;28;20058;-78
2022/08/05 02:44:05;;;;;;;5.55;4.97;;;;;;;21.28;89.84;100426.00;4960901;28;20046;-78
2022/08/05 02:46:39;;;;;;;6.20;5.68;;;;;;;21.20;89.96;100427.47;4987898;28;20537;-78
2022/08/05 02:49:26;;;;;;;5.00;4.60;;;;;;;21.21;90.73;100430.03;4950086;28;20130;-78
2022/08/05 02:52:09;;;;;;;5.55;5.05;;;;;;;21.11;90.89;100428.09;4967615;28;20065;-78
2022/08/05 02:54:40;;;;;;;5.55;4.93;;;;;;;21.11;91.18;100431.63;4952195;28;20181;-78
2022/08/05 02:57:13;;;;;;;5.55;5.00;;;;;;;21.06;91.81;100428.38;4972477;28;20047;-77
2022/08/05 03:00:00;;;;;;;5.60;5.10;;;;;;;20.98;92.60;100422.69;4978169;28;20086;-78
2022/08/05 03:02:37;;;;;;;5.85;5.25;;;;;;;20.91;93.53;100424.03;4997942;28;20129;-78
2022/08/05 03:05:07;;;;;;;5.53;5.00;;;;;;;20.90;93.29;100433.94;4971788;28;20038;-78
2022/08/05 03:07:36;;;;;;;6.43;5.70;;;;;;;20.85;93.90;100427.13;4952585;28;20043;-78
2022/08/05 03:10:24;;;;;;;5.90;5.40;;;;;;;20.80;95.52;100422.09;4955331;28;20569;-77
2022/08/05 03:12:52;;;;;;;7.30;5.57;;;;;;;20.88;94.92;100411.69;4984507;28;20047;-77
2022/08/05 03:15:21;;;;;;;6.78;6.07;;;;;;;20.85;96.10;100417.28;4975707;28;20046;-78
2022/08/05 03:17:51;;;;;;;5.90;5.40;;;;;;;20.77;96.16;100414.25;4991085;28;20035;-78
2022/08/05 03:20:21;;;;;;;6.45;5.90;;;;;;;20.78;96.11;100403.41;4975026;28;20512;-78
2022/08/05 03:22:49;;;;;;;6.22;5.72;;;;;;;20.73;96.70;100404.66;4958124;28;20043;-78
2022/08/05 03:25:18;;;;;;;6.20;5.60;;;;;;;20.71;97.28;100398.53;4971020;28;20038;-78
2022/08/05 03:28:06;;;;;;;7.35;5.75;;;;;;;20.68;97.91;100394.25;4958773;28;20378;-78
2022/08/05 03:30:34;;;;;;;5.68;5.18;;;;;;;20.67;98.11;100405.06;4930687;28;20042;-78
2022/08/05 03:33:03;;;;;;;5.90;5.50;;;;;;;20.71;98.02;100404.75;4971536;28;20058;-78
2022/08/05 03:35:32;;;;;;;6.07;5.47;;;;;;;20.71;98.27;100412.81;4957392;28;20365;-78
2022/08/05 03:37:59;;;;;;;6.60;5.63;;;;;;;20.76;98.93;100420.56;4964742;28;20476;-78
2022/08/05 03:40:26;;;;;;;5.97;5.35;;;;;;;20.86;98.86;100423.50;4964005;28;20039;-78
2022/08/05 03:42:58;;;;;;;7.65;5.65;;;;;;;21.02;97.41;100422.38;4978980;28;20045;-78
2022/08/05 03:45:42;;;;;;;7.07;5.53;;;;;;;21.05;99.26;100410.56;4955394;28;20451;-78
2022/08/05 03:48:28;;;;;;;5.88;5.28;;;;;;;21.07;97.87;100416.69;4938710;28;20065;-79
2022/08/05 03:51:13;;;;;;;32.05;9.55;;;;;;;21.10;98.45;100394.97;4971372;28;20066;-78
2022/08/05 03:54:20;;;;;;;46.45;11.18;;;;;;;21.18;96.83;100397.13;5023173;23;20076;-79
2022/08/05 03:57:10;;;;;;;32.42;9.07;;;;;;;21.12;96.56;100392.19;4982421;28;20045;-80
2022/08/05 03:59:50;;;;;;;31.08;9.98;;;;;;;21.11;96.55;100391.34;5007938;28;20084;-79
2022/08/05 04:02:24;;;;;;;22.55;9.23;;;;;;;21.12;95.30;100401.13;5017362;28;20108;-81
2022/08/05 04:05:06;;;;;;;8.70;6.88;;;;;;;21.02;95.73;100400.00;5028814;28;20462;-80
2022/08/05 04:07:37;;;;;;;8.38;5.90;;;;;;;21.00;96.11;100392.06;5013366;28;20037;-79
2022/08/05 04:10:25;;;;;;;8.82;6.18;;;;;;;21.03;96.54;100399.06;5005545;28;20504;-79
2022/08/05 04:12:54;;;;;;;6.47;5.82;;;;;;;21.05;96.98;100403.34;4986565;28;20051;-79
2022/08/05 04:15:24;;;;;;;18.73;6.90;;;;;;;21.07;97.17;100409.47;5000734;28;20045;-79
2022/08/05 04:17:53;;;;;;;12.52;6.43;;;;;;;21.11;96.92;100415.53;4991652;28;20448;-80
2022/08/05 04:20:23;;;;;;;22.58;7.85;;;;;;;21.18;96.71;100410.56;5019007;28;20041;-79
2022/08/05 04:22:50;;;;;;;25.17;8.73;;;;;;;21.28;95.96;100425.16;4991282;28;20506;-80
2022/08/05 04:25:16;;;;;;;15.93;7.63;;;;;;;21.34;95.59;100427.38;5019265;28;20045;-78
2022/08/05 04:27:43;;;;;;;14.98;7.22;;;;;;;21.47;94.94;100432.78;5043402;28;20667;-79
2022/08/05 04:30:24;;;;;;;13.93;6.88;;;;;;;21.65;95.47;100426.13;5021596;28;20063;-80
2022/08/05 04:32:53;;;;;;;12.95;6.53;;;;;;;21.74;95.92;100441.59;5038856;28;20037;-79
2022/08/05 04:35:21;;;;;;;9.02;6.35;;;;;;;21.76;95.42;100434.28;5026729;28;20132;-80
2022/08/05 04:37:49;;;;;;;6.80;5.57;;;;;;;;;;5038527;28;20132;-79
2022/08/05 04:40:34;;;;;;;14.68;6.45;;;;;;;21.97;94.23;100429.22;5011525;28;20049;-81
2022/08/05 04:43:01;;;;;;;8.52;6.30;;;;;;;22.03;93.98;100435.97;5015827;28;20035;-80
2022/08/05 04:45:27;;;;;;;6.38;5.55;;;;;;;22.00;93.99;100436.22;5005278;28;20041;-79
2022/08/05 04:48:17;;;;;;;7.35;5.57;;;;;;;22.02;93.97;100431.56;4992713;28;20034;-79
2022/08/05 04:50:53;;;;;;;8.35;6.60;;;;;;;22.11;93.08;100429.13;5020477;28;20033;-79
2022/08/05 04:53:36;;;;;;;6.68;5.82;;;;;;;22.15;93.51;100419.84;5003878;28;20033;-80
2022/08/05 05:00:24;;;;;;;8.00;5.60;;;;;;;22.50;91.63;100412.88;5037866;28;20052;-80
2022/08/05 05:02:51;;;;;;;10.20;6.10;;;;;;;22.62;90.62;100412.81;5001923;28;20033;-81
2022/08/05 05:05:17;;;;;;;7.32;5.90;;;;;;;22.71;90.31;100414.81;5033148;28;20045;-80
2022/08/05 05:07:57;;;;;;;6.72;5.93;;;;;;;22.81;90.46;100420.38;5046505;28;20025;-77
2022/08/05 05:10:29;;;;;;;6.15;5.55;;;;;;;22.98;89.46;100417.31;5008889;28;20057;-78
2022/08/05 05:12:59;;;;;;;7.10;5.60;;;;;;;23.17;87.32;100413.19;5013469;28;20125;-78
2022/08/05 05:15:29;;;;;;;7.13;6.13;;;;;;;23.41;83.63;100407.75;5010616;28;20127;-78
2022/08/05 05:18:16;;;;;;;6.32;5.72;;;;;;;23.53;85.41;100414.88;5003659;28;20907;-77
2022/08/05 05:21:00;;;;;;;6.20;5.40;;;;;;;23.80;82.01;100418.13;4998578;28;20037;-78
2022/08/05 05:23:26;;;;;;;5.60;5.10;;;;;;;23.90;81.40;100422.78;5012470;28;20651;-77
2022/08/05 05:26:13;;;;;;;5.68;5.10;;;;;;;23.96;81.65;100414.19;4997876;28;20099;-78
2022/08/05 05:28:40;;;;;;;5.75;5.20;;;;;;;24.05;81.72;100417.03;5013884;28;20129;-78
2022/08/05 05:31:10;;;;;;;5.80;5.30;;;;;;;24.19;79.32;100415.03;5037855;28;20043;-78
2022/08/05 05:33:37;;;;;;;5.68;5.18;;;;;;;24.23;80.50;100420.06;5014830;28;20049;-78
2022/08/05 05:36:23;;;;;;;5.50;5.00;;;;;;;24.42;77.82;100430.25;5018847;28;20049;-78
2022/08/05 05:38:55;;;;;;;6.25;5.65;;;;;;;24.66;77.69;100444.44;4984936;28;20136;-78
2022/08/05 05:41:22;;;;;;;5.68;5.07;;;;;;;24.98;74.90;100462.53;5014670;28;20048;-78
2022/08/05 05:43:49;;;;;;;6.57;5.80;;;;;;;25.12;74.38;100489.28;5012848;28;20052;-79
2022/08/05 05:46:26;;;;;;;6.45;5.18;;;;;;;25.21;74.51;100499.31;5015550;28;20063;-79
2022/08/05 05:48:52;;;;;;;6.53;5.10;;;;;;;25.21;73.35;100509.28;5022095;28;20037;-78
2022/08/05 05:51:23;;;;;;;6.68;5.75;;;;;;;25.17;72.43;100519.50;4992965;28;20111;-78
2022/08/05 05:53:54;;;;;;;7.10;5.45;;;;;;;25.16;72.62;100520.50;5003915;28;20048;-78
2022/08/05 05:56:28;;;;;;;58.00;14.82;;;;;;;25.15;73.13;100529.59;5016281;28;20544;-78
2022/08/05 05:59:04;;;;;;;8.00;6.05;;;;;;;25.20;71.93;100523.78;5014485;28;20057;-78
2022/08/05 06:01:33;;;;;;;8.40;5.70;;;;;;;25.24;71.79;100528.81;4993133;28;20056;-77
2022/08/05 06:04:08;;;;;;;10.68;6.00;;;;;;;25.22;71.55;100528.09;5032452;28;20037;-78
2022/08/05 06:06:38;;;;;;;;;;;;;;;25.39;71.01;100533.91;5012291;28;20101;-78
2022/08/05 06:09:07;;;;;;;7.38;5.60;;;;;;;25.35;70.51;100541.44;5011873;28;19921;-77
2022/08/05 06:11:34;;;;;;;5.45;4.93;;;;;;;25.24;70.44;100549.59;4998323;28;20124;-78
2022/08/05 06:14:04;;;;;;;5.50;5.00;;;;;;;25.23;70.55;100564.97;4995331;28;20064;-78
2022/08/05 06:16:31;;;;;;;16.75;5.95;;;;;;;25.24;71.08;100580.19;5017263;28;20483;-78
2022/08/05 06:19:04;;;;;;;7.35;4.95;;;;;;;25.04;72.40;100593.63;5007829;28;20045;-77
2022/08/05 06:21:33;;;;;;;5.50;5.00;;;;;;;24.77;73.76;100605.66;5008123;28;20030;-81
2022/08/05 06:24:05;;;;;;;6.60;5.15;;;;;;;24.71;75.40;100601.59;5014210;28;20510;-79
2022/08/05 06:26:41;;;;;;;7.80;4.93;;;;;;;24.64;76.42;100597.69;4995021;28;20280;-79
2022/08/05 06:29:17;;;;;;;5.72;4.57;;;;;;;24.79;76.62;100597.44;5011780;28;20034;-78
2022/08/05 06:32:04;;;;;;;5.38;4.47;;;;;;;25.21;74.21;100598.50;4991013;28;20091;-78
2022/08/05 06:34:47;;;;;;;5.40;4.75;;;;;;;25.43;73.97;100597.59;4999662;28;20045;-78
2022/08/05 06:37:19;;;;;;;4.65;4.25;;;;;;;25.81;72.13;100592.53;5012312;28;20124;-76
2022/08/05 06:40:06;;;;;;;5.20;4.22;;;;;;;26.16;70.53;100610.31;5011225;28;20529;-77
2022/08/05 06:42:32;;;;;;;4.28;3.92;;;;;;;26.56;68.93;100621.22;5004558;28;20095;-77
2022/08/05 06:44:59;;;;;;;5.10;4.60;;;;;;;26.87;67.38;100624.81;4989309;28;20045;-77
2022/08/05 06:47:31;;;;;;;5.10;4.65;;;;;;;26.64;67.76;100640.38;5015478;28;20762;-77
2022/08/05 06:50:17;;;;;;;6.57;4.22;;;;;;;26.10;70.22;100643.31;4993888;28;20049;-79
2022/08/05 06:52:44;;;;;;;10.52;4.13;;;;;;;26.03;70.83;100651.09;4999323;28;20140;-78
2022/08/05 06:55:29;;;;;;;7.95;4.35;;;;;;;26.07;71.81;100632.75;4994888;28;20041;-77
2022/08/05 06:58:02;;;;;;;15.63;5.67;;;;;;;26.34;70.76;100638.50;5015305;28;20115;-78
2022/08/05 07:00:49;;;;;;;4.95;3.78;;;;;;;26.73;69.05;100637.88;4996758;28;20093;-78
2022/08/05 07:03:16;;;;;;;23.35;6.18;;;;;;;26.82;69.33;100629.81;5008880;28;20040;-78
2022/08/05 07:05:44;;;;;;;4.25;3.83;;;;;;;26.93;68.25;100613.41;4996390;28;20049;-77
2022/08/05 07:08:12;;;;;;;4.65;3.60;;;;;;;27.18;68.37;100611.25;5012492;28;20041;-78
2022/08/05 07:10:39;;;;;;;4.32;3.20;;;;;;;27.18;67.22;100609.38;5013436;28;20447;-77
2022/08/05 07:19:32;;;;;;;3.03;2.80;;;;;;;26.99;66.25;100570.47;5013167;28;20482;-78
2022/08/05 07:22:21;;;;;;;3.97;3.30;;;;;;;26.69;67.62;100577.66;5009180;28;20692;-77
2022/08/05 07:25:02;;;;;;;3.58;3.00;;;;;;;26.32;68.70;100580.03;5006836;28;20069;-77
2022/08/05 07:27:50;;;;;;;3.22;2.97;;;;;;;26.19;70.03;100582.09;5039731;28;20033;-77
2022/08/05 07:30:32;;;;;;;3.88;3.08;;;;;;;25.99;71.95;100592.81;5011135;28;20045;-78
2022/08/05 07:33:04;;;;;;;3.80;3.25;;;;;;;25.80;72.31;100587.25;5032946;28;20045;-77
2022/08/05 07:35:37;;;;;;;3.78;2.83;;;;;;;25.63;73.66;100591.34;5009694;28;20038;-78
2022/08/05 07:38:25;;;;;;;3.67;3.08;;;;;;;25.46;74.98;100595.47;4985116;28;20044;-78
2022/08/05 07:41:02;;;;;;;3.22;2.92;;;;;;;25.42;75.02;100604.84;4998101;28;20128;-77
2022/08/05 07:43:49;;;;;;;3.50;3.20;;;;;;;25.58;74.29;100607.13;4996540;28;20048;-79
2022/08/05 07:46:16;;;;;;;4.90;3.22;;;;;;;25.60;74.05;100612.41;4983764;28;20051;-79
2022/08/05 07:48:55;;;;;;;3.83;3.00;;;;;;;25.55;74.60;100639.81;4996600;28;20064;-80
2022/08/05 07:51:37;;;;;;;6.13;3.70;;;;;;;25.36;76.02;100658.56;4998227;28;20127;-80
2022/08/05 07:54:26;;;;;;;3.58;3.20;;;;;;;25.21;75.88;100661.53;4981367;28;20049;-79
2022/08/05 07:56:59;;;;;;;4.53;3.50;;;;;;;25.14;76.80;100665.75;4996274;28;20049;-80
2022/08/05 07:59:46;;;;;;;4.68;3.25;;;;;;;24.99;77.82;100646.19;5012146;28;20049;-79
2022/08/05 08:02:14;;;;;;;4.65;4.03;;;;;;;24.96;78.32;100635.63;4994822;28;20137;-78
2022/08/05 08:04:47;;;;;;;5.10;3.42;;;;;;;25.01;78.48;100635.25;4985705;28;20044;-78
2022/08/05 08:07:16;;;;;;;8.65;3.72;;;;;;;24.93;79.12;100626.91;5001992;28;20065;-78
2022/08/05 08:09:50;;;;;;;3.97;3.53;;;;;;;24.70;81.04;100645.81;4985401;28;20542;-80
2022/08/05 08:12:19;;;;;;;6.00;4.35;;;;;;;24.82;80.68;100649.41;4992212;28;20119;-79
2022/08/05 08:15:04;;;;;;;5.25;4.20;;;;;;;24.49;82.66;100660.19;5014572;28;20517;-79
2022/08/05 08:17:39;;;;;;;4.90;4.05;;;;;;;24.38;83.88;100656.50;4985186;28;20050;-80
2022/08/05 08:20:16;;;;;;;4.00;3.60;;;;;;;24.26;84.92;100640.34;4997679;28;20492;-80
2022/08/05 08:23:02;;;;;;;12.73;5.57;;;;;;;23.98;88.89;100626.28;4997673;28;20648;-80
2022/08/05 08:25:29;;;;;;;9.05;4.47;;;;;;;23.85;100.00;100630.88;5011272;28;20057;-79
2022/08/05 08:28:16;;;;;;;6.38;4.60;;;;;;;23.59;100.00;100635.53;4998495;28;20057;-80
2022/08/05 08:30:44;;;;;;;6.70;4.78;;;;;;;23.19;100.00;100622.31;5021348;28;20040;-79
2022/08/05 08:33:15;;;;;;;6.57;4.63;;;;;;;22.88;100.00;100610.25;5011066;28;20136;-79
2022/08/05 08:35:42;;;;;;;6.32;4.75;;;;;;;22.73;100.00;100605.94;5011099;28;20403;-79
2022/08/05 08:38:28;;;;;;;4.97;4.50;;;;;;;22.57;100.00;100599.91;5010064;28;20045;-79
2022/08/05 08:41:07;;;;;;;5.05;4.55;;;;;;;22.28;100.00;100600.16;5015491;28;20064;-79
2022/08/05 08:43:35;;;;;;;6.00;5.40;;;;;;;22.33;100.00;100597.97;4983469;28;20132;-80
2022/08/05 08:46:22;;;;;;;5.45;4.97;;;;;;;22.39;100.00;100583.25;5014741;28;20499;-79
2022/08/05 08:48:51;;;;;;;6.95;5.88;;;;;;;22.50;100.00;100583.34;5012631;28;20413;-78
2022/08/05 08:51:39;;;;;;;8.43;5.45;;;;;;;22.45;100.00;100593.59;5009914;28;20099;-78
2022/08/05 08:54:26;;;;;;;6.72;5.07;;;;;;;22.41;100.00;100595.63;4996932;28;20061;-78
2022/08/05 08:56:53;;;;;;;5.20;4.80;;;;;;;22.39;100.00;100594.00;5014611;28;20041;-78
2022/08/05 08:59:22;;;;;;;6.03;5.43;;;;;;;22.36;100.00;100602.28;5001926;28;20044;-79
2022/08/05 09:01:53;;;;;;;5.57;5.05;;;;;;;22.33;100.00;100600.69;5015643;28;20036;-78
2022/08/05 09:04:23;;;;;;;5.60;5.05;;;;;;;22.30;100.00;100600.03;4999431;28;20041;-78
2022/08/05 09:06:56;;;;;;;8.75;5.90;;;;;;;22.21;100.00;100598.00;5027026;28;20041;-79
2022/08/05 09:09:24;;;;;;;5.35;4.85;;;;;;;22.20;100.00;100599.84;5016291;28;20453;-79
2022/08/05 09:12:01;;;;;;;5.70;5.20;;;;;;;22.25;100.00;100615.66;5002311;28;20541;-78
2022/08/05 09:14:48;;;;;;;5.90;5.03;;;;;;;22.31;100.00;100616.09;5016221;28;20045;-79
2022/08/05 09:17:25;;;;;;;6.40;5.80;;;;;;;22.37;100.00;100623.72;4987049;28;20087;-79
2022/08/05 09:20:07;;;;;;;6.10;5.60;;;;;;;22.48;100.00;100633.75;5025290;28;20117;-79
2022/08/05 09:23:05;;;;;;;7.72;5.47;;;;;;;22.62;100.00;100643.53;4983325;28;20044;-80
2022/08/05 09:25:35;;;;;;;6.82;6.03;;;;;;;22.72;100.00;100644.59;5025422;28;20045;-79
2022/08/05 09:28:23;;;;;;;5.97;5.38;;;;;;;22.63;100.00;100647.97;5012638;28;20060;-79
2022/08/05 09:31:04;;;;;;;6.47;5.78;;;;;;;22.64;100.00;100644.28;5009343;28;20045;-79
2022/08/05 09:33:57;;;;;;;5.78;5.10;;;;;;;22.50;100.00;100647.09;4999684;28;20656;-78
2022/08/05 09:36:37;;;;;;;13.93;5.80;;;;;;;22.41;100.00;100652.16;5037315;28;20041;-78
2022/08/05 09:39:23;;;;;;;6.15;4.82;;;;;;;22.45;100.00;100648.28;5000502;28;20047;-79
2022/08/05 09:42:07;;;;;;;6.35;5.68;;;;;;;22.58;100.00;100647.41;5015520;28;20132;-79
2022/08/05 09:44:41;;;;;;;4.97;4.55;;;;;;;22.63;100.00;100640.75;5044820;28;20041;-79
2022/08/05 09:47:11;;;;;;;5.40;4.90;;;;;;;22.55;100.00;100640.41;5015815;28;20044;-79
2022/08/05 09:49:51;;;;;;;5.95;5.28;;;;;;;22.56;100.00;100646.66;4997354;28;20037;-80
2022/08/05 09:52:30;;;;;;;5.88;5.10;;;;;;;22.70;100.00;100635.75;5017284;28;20053;-79
2022/08/05 09:55:03;;;;;;;5.85;5.28;;;;;;;22.73;100.00;100639.09;4983699;28;20068;-79
2022/08/05 09:57:49;;;;;;;5.18;4.78;;;;;;;22.67;100.00;100625.22;5027321;28;20045;-79
2022/08/05 10:00:24;;;;;;;5.82;5.32;;;;;;;22.63;100.00;100629.97;5016611;28;20064;-79
2022/08/05 10:02:55;;;;;;;5.68;5.05;;;;;;;22.59;100.00;100625.75;5000963;28;20120;-79
2022/08/05 10:05:25;;;;;;;5.40;5.00;;;;;;;22.54;100.00;100592.06;4986252;28;20565;-80
2022/08/05 10:08:00;;;;;;;5.93;5.35;;;;;;;22.55;100.00;100594.66;5015451;28;20063;-79
2022/08/05 10:10:48;;;;;;;6.22;5.63;;;;;;;22.59;100.00;100600.66;5005949;28;20097;-81
2022/08/05 10:13:37;;;;;;;6.68;6.00;;;;;;;22.59;100.00;100612.28;4985438;28;20069;-80
2022/08/05 10:16:31;;;;;;;5.40;4.43;;;;;;;22.45;100.00;100598.97;5014723;28;20081;-80
2022/08/05 10:19:00;;;;;;;5.47;4.72;;;;;;;22.42;100.00;100597.34;5017791;28;20034;-80
2022/08/05 10:21:35;;;;;;;7.38;5.10;;;;;;;22.41;100.00;100624.38;5000428;28;20383;-80
2022/08/05 10:24:11;;;;;;;7.00;5.32;;;;;;;22.44;100.00;100590.00;5011129;28;20061;-80
2022/08/05 10:26:40;;;;;;;5.65;5.15;;;;;;;22.40;100.00;100604.66;4991060;28;20033;-79
2022/08/05 10:29:17;;;;;;;7.15;5.00;;;;;;;22.40;100.00;100601.13;5001370;28;20060;-79
2022/08/05 10:32:06;;;;;;;7.18;5.55;;;;;;;22.51;100.00;100609.28;4987003;28;20351;-79
2022/08/05 10:34:57;;;;;;;6.60;5.78;;;;;;;22.60;100.00;100607.75;4973941;28;20395;-77
2022/08/05 10:37:29;;;;;;;6.40;5.07;;;;;;;22.62;100.00;100604.00;4973986;28;20057;-79
2022/08/05 10:40:47;;;;;;;6.10;5.50;;;;;;;22.79;100.00;100613.56;4981264;28;20034;-79
2022/08/05 10:43:40;;;;;;;5.40;4.90;;;;;;;22.97;100.00;100614.97;4968759;28;20043;-78
2022/08/05 10:46:10;;;;;;;5.97;5.32;;;;;;;23.23;100.00;100617.56;4985095;28;20073;-78
2022/08/05 10:48:39;;;;;;;5.85;5.35;;;;;;;23.51;100.00;100619.06;4957597;28;20064;-77
2022/08/05 10:51:23;;;;;;;7.60;5.55;;;;;;;24.05;100.00;100613.19;4974030;28;20133;-77
2022/08/05 10:53:59;;;;;;;5.25;4.75;;;;;;;24.47;100.00;100614.41;4993117;28;20049;-78
2022/08/05 10:56:43;;;;;;;4.95;4.22;;;;;;;24.73;100.00;100603.34;4991015;28;20089;-79
2022/08/05 10:59:10;;;;;;;5.10;4.53;;;;;;;24.85;100.00;100610.44;4953667;28;20089;-79
2022/08/05 11:02:11;;;;;;;4.40;4.00;;;;;;;24.89;98.14;100614.63;4995285;28;20042;-79
2022/08/05 11:04:58;;;;;;;4.35;3.95;;;;;;;25.39;95.05;100618.63;4973456;28;20046;-78
2022/08/05 11:07:25;;;;;;;4.28;3.70;;;;;;;26.10;100.00;100622.53;5005167;28;20107;-79
2022/08/05 11:10:24;;;;;;;5.32;3.67;;;;;;;26.45;90.92;100623.19;4976521;28;20133;-78
2022/08/05 11:12:54;;;;;;;4.30;3.67;;;;;;;26.77;84.34;100615.78;5004705;28;20053;-78
2022/08/05 11:15:27;;;;;;;3.80;3.50;;;;;;;26.99;87.69;100624.69;4971510;28;20065;-78
2022/08/05 11:18:32;;;;;;;3.83;3.42;;;;;;;27.16;79.29;100624.09;4986764;28;20082;-79
2022/08/05 11:21:04;;;;;;;5.45;3.50;;;;;;;27.43;78.83;100620.72;4988625;28;20074;-79
2022/08/05 11:23:51;;;;;;;5.65;3.63;;;;;;;27.78;79.70;100628.31;4967221;28;20042;-78
2022/08/05 11:26:38;;;;;;;4.40;4.00;;;;;;;28.13;81.39;100637.72;4983609;28;20120;-78
2022/08/05 11:29:33;;;;;;;4.30;3.83;;;;;;;28.42;75.92;100641.28;4983781;28;20086;-78
2022/08/05 11:32:26;;;;;;;5.68;3.70;;;;;;;28.59;71.23;100637.81;4991888;28;20142;-78
2022/08/05 11:34:53;;;;;;;4.18;3.10;;;;;;;28.51;70.33;100631.41;4987832;28;20051;-79
2022/08/05 11:37:43;;;;;;;3.70;3.33;;;;;;;28.83;69.03;100639.13;5015757;28;20450;-78
2022/08/05 11:41:02;;;;;;;3.63;3.30;;;;;;;28.97;68.90;100626.94;4983288;28;20049;-78
2022/08/05 11:44:03;;;;;;;5.35;3.88;;;;;;;29.17;66.80;100629.38;4980616;28;20119;-79
2022/08/05 11:46:42;;;;;;;5.05;2.85;;;;;;;28.85;66.07;100626.25;4991053;28;20046;-79
2022/08/05 11:49:28;;;;;;;3.75;2.92;;;;;;;28.58;65.98;100636.06;4984696;28;20030;-78
2022/08/05 11:51:59;;;;;;;6.38;3.70;;;;;;;28.27;69.61;100621.84;4988466;28;20046;-78
2022/08/05 11:54:29;;;;;;;5.85;3.88;;;;;;;28.05;70.14;100631.16;4969652;28;20050;-78
2022/08/05 11:57:01;;;;;;;3.72;3.30;;;;;;;28.12;67.50;100620.56;4993982;28;20085;-79
2022/08/05 11:59:47;;;;;;;4.70;3.40;;;;;;;28.71;66.28;100629.47;4971200;28;20075;-79
2022/08/05 12:02:16;;;;;;;4.10;3.70;;;;;;;28.68;64.29;100633.34;4989706;28;20535;-77
2022/08/05 12:04:59;;;;;;;3.67;3.38;;;;;;;28.60;65.28;100627.78;4957655;28;20049;-78
2022/08/05 12:07:34;;;;;;;3.80;3.38;;;;;;;28.75;63.90;100628.13;4980560;28;20035;-79
2022/08/05 12:10:24;;;;;;;4.22;3.83;;;;;;;28.13;65.69;100633.16;4984577;28;20041;-78
2022/08/05 12:13:12;;;;;;;4.00;3.70;;;;;;;27.95;68.54;100637.59;4980576;28;20944;-77
2022/08/05 12:15:43;;;;;;;3.92;3.30;;;;;;;27.94;69.66;100631.31;4963547;28;20055;-78
2022/08/05 12:18:16;;;;;;;3.85;3.45;;;;;;;27.81;72.64;100638.88;4967797;28;20046;-77
2022/08/05 12:20:46;;;;;;;4.20;3.80;;;;;;;27.71;71.46;100643.47;4968793;28;20035;-77